sensor_id;sensor_type;location;lat;lon;timestamp;P1;durP1;ratioP1;P2;durP2;ratioP2
18455;SDS011;9357;49.900;8.208;2023-11-19T00:00:43;0.98;;;0.98;;
18455;SDS011;9357;49.900;8.208;2023-11-19T00:02:24;0.90;;;0.90;;
18455;SDS011;9357;49.900;8.208;2023-11-19T00:03:57;0.90;;;0.90;;
18455;SDS011;9357;49.900;8.208;2023-11-19T00:05:30;0.98;;;0.90;;
18455;SDS011;9357;49.900;8.208;2023-11-19T00:07:03;2.25;;;1.10;;
18455;SDS011;9357;49.900;8.208;2023-11-19T00:08:37;1.92;;;1.50;;
18455;SDS011;9357;49.900;8.208;2023-11-19T00:10:10;3.10;;;1.20;;
18455;SDS011;9357;49.900;8.208;2023-11-19T00:11:43;1.63;;;1.38;;
18455;SDS011;9357;49.900;8.208;2023-11-19T00:13:24;1.70;;;1.60;;
18455;SDS011;9357;49.900;8.208;2023-11-19T00:14:57;1.45;;;1.35;;
18455;SDS011;9357;49.900;8.208;2023-11-19T00:16:29;1.85;;;1.30;;
18455;SDS011;9357;49.900;8.208;2023-11-19T00:18:03;1.90;;;1.30;;
18455;SDS011;9357;49.900;8.208;2023-11-19T00:19:37;1.40;;;1.30;;
18455;SDS011;9357;49.900;8.208;2023-11-19T00:21:09;1.52;;;1.42;;
18455;SDS011;9357;49.900;8.208;2023-11-19T00:22:42;1.70;;;1.47;;
18455;SDS011;9357;49.900;8.208;2023-11-19T00:24:17;1.45;;;1.35;;
18455;SDS011;9357;49.900;8.208;2023-11-19T00:25:51;1.48;;;1.38;;
18455;SDS011;9357;49.900;8.208;2023-11-19T00:27:23;1.35;;;1.25;;
18455;SDS011;9357;49.900;8.208;2023-11-19T00:28:56;1.40;;;1.30;;
18455;SDS011;9357;49.900;8.208;2023-11-19T00:30:28;1.83;;;1.30;;
18455;SDS011;9357;49.900;8.208;2023-11-19T00:32:02;1.13;;;1.02;;
18455;SDS011;9357;49.900;8.208;2023-11-19T00:33:36;1.38;;;1.27;;
18455;SDS011;9357;49.900;8.208;2023-11-19T00:35:22;4.05;;;1.40;;
18455;SDS011;9357;49.900;8.208;2023-11-19T00:36:53;1.40;;;1.30;;
18455;SDS011;9357;49.900;8.208;2023-11-19T00:38:27;1.35;;;1.10;;
18455;SDS011;9357;49.900;8.208;2023-11-19T00:39:58;2.47;;;1.42;;
18455;SDS011;9357;49.900;8.208;2023-11-19T00:41:31;1.58;;;1.20;;
18455;SDS011;9357;49.900;8.208;2023-11-19T00:43:03;2.17;;;1.30;;
18455;SDS011;9357;49.900;8.208;2023-11-19T00:44:36;1.40;;;1.30;;
18455;SDS011;9357;49.900;8.208;2023-11-19T00:46:07;1.10;;;1.10;;
18455;SDS011;9357;49.900;8.208;2023-11-19T00:47:42;1.40;;;1.30;;
18455;SDS011;9357;49.900;8.208;2023-11-19T00:49:14;2.10;;;1.10;;
18455;SDS011;9357;49.900;8.208;2023-11-19T00:50:48;1.00;;;1.00;;
18455;SDS011;9357;49.900;8.208;2023-11-19T00:52:20;1.30;;;1.20;;
18455;SDS011;9357;49.900;8.208;2023-11-19T00:53:53;0.95;;;0.95;;
18455;SDS011;9357;49.900;8.208;2023-11-19T00:55:26;1.13;;;0.80;;
18455;SDS011;9357;49.900;8.208;2023-11-19T00:56:58;0.90;;;0.85;;
18455;SDS011;9357;49.900;8.208;2023-11-19T00:58:32;0.73;;;0.73;;
18455;SDS011;9357;49.900;8.208;2023-11-19T01:00:05;0.80;;;0.80;;
18455;SDS011;9357;49.900;8.208;2023-11-19T01:01:45;0.73;;;0.70;;
18455;SDS011;9357;49.900;8.208;2023-11-19T01:03:19;1.20;;;0.70;;
18455;SDS011;9357;49.900;8.208;2023-11-19T01:04:51;1.42;;;0.80;;
18455;SDS011;9357;49.900;8.208;2023-11-19T01:06:28;0.77;;;0.70;;
18455;SDS011;9357;49.900;8.208;2023-11-19T01:08:01;0.77;;;0.70;;
18455;SDS011;9357;49.900;8.208;2023-11-19T01:09:35;1.02;;;0.60;;
18455;SDS011;9357;49.900;8.208;2023-11-19T01:11:07;2.15;;;0.70;;
18455;SDS011;9357;49.900;8.208;2023-11-19T01:12:40;0.60;;;0.60;;
18455;SDS011;9357;49.900;8.208;2023-11-19T01:14:12;0.70;;;0.70;;
18455;SDS011;9357;49.900;8.208;2023-11-19T01:15:45;0.45;;;0.45;;
18455;SDS011;9357;49.900;8.208;2023-11-19T01:17:16;1.02;;;0.70;;
18455;SDS011;9357;49.900;8.208;2023-11-19T01:18:49;0.75;;;0.75;;
18455;SDS011;9357;49.900;8.208;2023-11-19T01:20:21;0.60;;;0.60;;
18455;SDS011;9357;49.900;8.208;2023-11-19T01:21:56;0.43;;;0.43;;
18455;SDS011;9357;49.900;8.208;2023-11-19T01:23:28;0.50;;;0.50;;
18455;SDS011;9357;49.900;8.208;2023-11-19T01:25:00;1.02;;;0.90;;
18455;SDS011;9357;49.900;8.208;2023-11-19T01:26:32;1.30;;;1.20;;
18455;SDS011;9357;49.900;8.208;2023-11-19T01:28:05;1.08;;;1.08;;
18455;SDS011;9357;49.900;8.208;2023-11-19T01:29:37;1.40;;;1.30;;
18455;SDS011;9357;49.900;8.208;2023-11-19T01:31:10;1.17;;;0.90;;
18455;SDS011;9357;49.900;8.208;2023-11-19T01:32:42;0.80;;;0.80;;
18455;SDS011;9357;49.900;8.208;2023-11-19T01:34:15;0.80;;;0.80;;
18455;SDS011;9357;49.900;8.208;2023-11-19T01:35:47;1.05;;;0.60;;
18455;SDS011;9357;49.900;8.208;2023-11-19T01:37:21;0.80;;;0.57;;
18455;SDS011;9357;49.900;8.208;2023-11-19T01:38:53;0.73;;;0.70;;
18455;SDS011;9357;49.900;8.208;2023-11-19T01:40:25;1.35;;;0.57;;
18455;SDS011;9357;49.900;8.208;2023-11-19T01:41:57;0.40;;;0.40;;
18455;SDS011;9357;49.900;8.208;2023-11-19T01:43:30;0.67;;;0.67;;
18455;SDS011;9357;49.900;8.208;2023-11-19T01:45:04;0.50;;;0.50;;
18455;SDS011;9357;49.900;8.208;2023-11-19T01:46:40;0.50;;;0.50;;
18455;SDS011;9357;49.900;8.208;2023-11-19T01:48:14;0.37;;;0.37;;
18455;SDS011;9357;49.900;8.208;2023-11-19T01:49:46;0.40;;;0.40;;
18455;SDS011;9357;49.900;8.208;2023-11-19T01:51:19;0.30;;;0.30;;
18455;SDS011;9357;49.900;8.208;2023-11-19T01:52:54;0.35;;;0.30;;
18455;SDS011;9357;49.900;8.208;2023-11-19T01:54:28;0.30;;;0.30;;
18455;SDS011;9357;49.900;8.208;2023-11-19T01:56:00;0.50;;;0.50;;
18455;SDS011;9357;49.900;8.208;2023-11-19T01:57:34;0.27;;;0.27;;
18455;SDS011;9357;49.900;8.208;2023-11-19T01:59:09;0.30;;;0.30;;
18455;SDS011;9357;49.900;8.208;2023-11-19T02:00:44;0.20;;;0.20;;
18455;SDS011;9357;49.900;8.208;2023-11-19T02:02:16;0.30;;;0.30;;
18455;SDS011;9357;49.900;8.208;2023-11-19T02:03:51;0.20;;;0.20;;
18455;SDS011;9357;49.900;8.208;2023-11-19T02:05:24;0.70;;;0.40;;
18455;SDS011;9357;49.900;8.208;2023-11-19T02:06:58;0.40;;;0.40;;
18455;SDS011;9357;49.900;8.208;2023-11-19T02:08:31;0.20;;;0.20;;
18455;SDS011;9357;49.900;8.208;2023-11-19T02:10:05;0.87;;;0.30;;
18455;SDS011;9357;49.900;8.208;2023-11-19T02:11:39;1.53;;;0.40;;
18455;SDS011;9357;49.900;8.208;2023-11-19T02:13:12;0.40;;;0.40;;
18455;SDS011;9357;49.900;8.208;2023-11-19T02:14:45;0.50;;;0.50;;
18455;SDS011;9357;49.900;8.208;2023-11-19T02:16:18;0.50;;;0.50;;
18455;SDS011;9357;49.900;8.208;2023-11-19T02:17:50;0.57;;;0.50;;
18455;SDS011;9357;49.900;8.208;2023-11-19T02:19:22;1.03;;;0.43;;
18455;SDS011;9357;49.900;8.208;2023-11-19T02:20:54;0.40;;;0.40;;
18455;SDS011;9357;49.900;8.208;2023-11-19T02:22:27;0.40;;;0.40;;
18455;SDS011;9357;49.900;8.208;2023-11-19T02:24:01;0.30;;;0.23;;
18455;SDS011;9357;49.900;8.208;2023-11-19T02:25:39;0.40;;;0.30;;
18455;SDS011;9357;49.900;8.208;2023-11-19T02:27:13;0.50;;;0.50;;
18455;SDS011;9357;49.900;8.208;2023-11-19T02:28:54;0.50;;;0.50;;
18455;SDS011;9357;49.900;8.208;2023-11-19T02:30:26;0.50;;;0.50;;
18455;SDS011;9357;49.900;8.208;2023-11-19T02:32:00;0.20;;;0.20;;
18455;SDS011;9357;49.900;8.208;2023-11-19T02:33:34;0.33;;;0.33;;
18455;SDS011;9357;49.900;8.208;2023-11-19T02:35:07;0.47;;;0.47;;
18455;SDS011;9357;49.900;8.208;2023-11-19T02:36:40;0.60;;;0.60;;
18455;SDS011;9357;49.900;8.208;2023-11-19T02:38:13;0.63;;;0.40;;
18455;SDS011;9357;49.900;8.208;2023-11-19T02:39:45;0.50;;;0.50;;
18455;SDS011;9357;49.900;8.208;2023-11-19T02:41:18;0.50;;;0.50;;
18455;SDS011;9357;49.900;8.208;2023-11-19T02:42:51;0.40;;;0.40;;
18455;SDS011;9357;49.900;8.208;2023-11-19T02:44:24;0.60;;;0.50;;
18455;SDS011;9357;49.900;8.208;2023-11-19T02:46:00;0.40;;;0.40;;
18455;SDS011;9357;49.900;8.208;2023-11-19T02:47:46;0.60;;;0.60;;
18455;SDS011;9357;49.900;8.208;2023-11-19T02:49:18;0.70;;;0.70;;
18455;SDS011;9357;49.900;8.208;2023-11-19T02:50:50;0.60;;;0.60;;
18455;SDS011;9357;49.900;8.208;2023-11-19T02:52:23;0.50;;;0.50;;
18455;SDS011;9357;49.900;8.208;2023-11-19T02:53:56;0.40;;;0.40;;
18455;SDS011;9357;49.900;8.208;2023-11-19T02:55:28;0.50;;;0.50;;
18455;SDS011;9357;49.900;8.208;2023-11-19T02:57:05;0.57;;;0.40;;
18455;SDS011;9357;49.900;8.208;2023-11-19T02:58:39;0.47;;;0.47;;
18455;SDS011;9357;49.900;8.208;2023-11-19T03:00:14;0.40;;;0.40;;
18455;SDS011;9357;49.900;8.208;2023-11-19T03:01:47;0.73;;;0.47;;
18455;SDS011;9357;49.900;8.208;2023-11-19T03:03:21;0.60;;;0.60;;
18455;SDS011;9357;49.900;8.208;2023-11-19T03:04:57;0.60;;;0.60;;
18455;SDS011;9357;49.900;8.208;2023-11-19T03:06:31;0.50;;;0.50;;
18455;SDS011;9357;49.900;8.208;2023-11-19T03:08:03;0.80;;;0.50;;
18455;SDS011;9357;49.900;8.208;2023-11-19T03:09:36;0.60;;;0.57;;
18455;SDS011;9357;49.900;8.208;2023-11-19T03:11:07;0.37;;;0.37;;
18455;SDS011;9357;49.900;8.208;2023-11-19T03:12:41;0.70;;;0.70;;
18455;SDS011;9357;49.900;8.208;2023-11-19T03:14:13;0.60;;;0.60;;
18455;SDS011;9357;49.900;8.208;2023-11-19T03:15:47;0.60;;;0.60;;
18455;SDS011;9357;49.900;8.208;2023-11-19T03:17:19;0.50;;;0.50;;
18455;SDS011;9357;49.900;8.208;2023-11-19T03:18:53;0.67;;;0.67;;
18455;SDS011;9357;49.900;8.208;2023-11-19T03:20:26;0.60;;;0.60;;
18455;SDS011;9357;49.900;8.208;2023-11-19T03:21:59;0.93;;;0.73;;
18455;SDS011;9357;49.900;8.208;2023-11-19T03:23:33;0.70;;;0.70;;
18455;SDS011;9357;49.900;8.208;2023-11-19T03:25:05;0.53;;;0.53;;
18455;SDS011;9357;49.900;8.208;2023-11-19T03:26:39;0.60;;;0.60;;
18455;SDS011;9357;49.900;8.208;2023-11-19T03:28:11;0.90;;;0.73;;
18455;SDS011;9357;49.900;8.208;2023-11-19T03:29:44;0.70;;;0.70;;
18455;SDS011;9357;49.900;8.208;2023-11-19T03:31:17;0.97;;;0.80;;
18455;SDS011;9357;49.900;8.208;2023-11-19T03:32:51;1.27;;;0.60;;
18455;SDS011;9357;49.900;8.208;2023-11-19T03:34:23;0.90;;;0.67;;
18455;SDS011;9357;49.900;8.208;2023-11-19T03:35:56;1.27;;;0.90;;
18455;SDS011;9357;49.900;8.208;2023-11-19T03:37:28;1.47;;;1.10;;
18455;SDS011;9357;49.900;8.208;2023-11-19T03:39:00;0.70;;;0.70;;
18455;SDS011;9357;49.900;8.208;2023-11-19T03:40:34;1.23;;;0.80;;
18455;SDS011;9357;49.900;8.208;2023-11-19T03:42:06;1.47;;;0.87;;
18455;SDS011;9357;49.900;8.208;2023-11-19T03:43:39;0.77;;;0.77;;
18455;SDS011;9357;49.900;8.208;2023-11-19T03:45:11;1.03;;;0.80;;
18455;SDS011;9357;49.900;8.208;2023-11-19T03:46:45;0.87;;;0.87;;
18455;SDS011;9357;49.900;8.208;2023-11-19T03:48:18;1.17;;;0.80;;
18455;SDS011;9357;49.900;8.208;2023-11-19T03:49:51;0.83;;;0.80;;
18455;SDS011;9357;49.900;8.208;2023-11-19T03:51:23;0.87;;;0.87;;
18455;SDS011;9357;49.900;8.208;2023-11-19T03:52:56;0.97;;;0.80;;
18455;SDS011;9357;49.900;8.208;2023-11-19T03:54:27;0.70;;;0.70;;
18455;SDS011;9357;49.900;8.208;2023-11-19T03:56:00;0.70;;;0.70;;
18455;SDS011;9357;49.900;8.208;2023-11-19T03:57:32;0.80;;;0.80;;
18455;SDS011;9357;49.900;8.208;2023-11-19T03:59:04;0.93;;;0.80;;
18455;SDS011;9357;49.900;8.208;2023-11-19T04:00:36;0.87;;;0.60;;
18455;SDS011;9357;49.900;8.208;2023-11-19T04:02:10;0.70;;;0.70;;
18455;SDS011;9357;49.900;8.208;2023-11-19T04:03:42;0.80;;;0.80;;
18455;SDS011;9357;49.900;8.208;2023-11-19T04:05:18;1.10;;;0.73;;
18455;SDS011;9357;49.900;8.208;2023-11-19T04:06:51;0.50;;;0.50;;
18455;SDS011;9357;49.900;8.208;2023-11-19T04:08:22;1.17;;;0.70;;
18455;SDS011;9357;49.900;8.208;2023-11-19T04:09:55;0.70;;;0.70;;
18455;SDS011;9357;49.900;8.208;2023-11-19T04:11:27;0.80;;;0.77;;
18455;SDS011;9357;49.900;8.208;2023-11-19T04:13:00;1.10;;;0.90;;
18455;SDS011;9357;49.900;8.208;2023-11-19T04:14:32;0.80;;;0.80;;
18455;SDS011;9357;49.900;8.208;2023-11-19T04:16:05;0.70;;;0.70;;
18455;SDS011;9357;49.900;8.208;2023-11-19T04:17:39;0.70;;;0.70;;
18455;SDS011;9357;49.900;8.208;2023-11-19T04:19:11;0.80;;;0.80;;
18455;SDS011;9357;49.900;8.208;2023-11-19T04:20:43;0.70;;;0.70;;
18455;SDS011;9357;49.900;8.208;2023-11-19T04:22:16;0.73;;;0.73;;
18455;SDS011;9357;49.900;8.208;2023-11-19T04:23:48;0.90;;;0.90;;
18455;SDS011;9357;49.900;8.208;2023-11-19T04:25:20;0.73;;;0.73;;
18455;SDS011;9357;49.900;8.208;2023-11-19T04:26:52;1.57;;;0.90;;
18455;SDS011;9357;49.900;8.208;2023-11-19T04:28:25;0.90;;;0.90;;
18455;SDS011;9357;49.900;8.208;2023-11-19T04:29:58;0.90;;;0.90;;
18455;SDS011;9357;49.900;8.208;2023-11-19T04:31:32;0.97;;;0.97;;
18455;SDS011;9357;49.900;8.208;2023-11-19T04:33:06;0.90;;;0.90;;
18455;SDS011;9357;49.900;8.208;2023-11-19T04:34:38;0.80;;;0.80;;
18455;SDS011;9357;49.900;8.208;2023-11-19T04:36:10;0.90;;;0.90;;
18455;SDS011;9357;49.900;8.208;2023-11-19T04:37:45;0.80;;;0.80;;
18455;SDS011;9357;49.900;8.208;2023-11-19T04:39:18;1.30;;;0.90;;
18455;SDS011;9357;49.900;8.208;2023-11-19T04:40:51;2.13;;;1.03;;
18455;SDS011;9357;49.900;8.208;2023-11-19T04:42:23;1.30;;;1.07;;
18455;SDS011;9357;49.900;8.208;2023-11-19T04:43:56;1.10;;;1.10;;
18455;SDS011;9357;49.900;8.208;2023-11-19T04:45:28;0.90;;;0.90;;
18455;SDS011;9357;49.900;8.208;2023-11-19T04:47:00;2.03;;;1.20;;
18455;SDS011;9357;49.900;8.208;2023-11-19T04:48:34;1.07;;;1.07;;
18455;SDS011;9357;49.900;8.208;2023-11-19T04:50:09;0.80;;;0.80;;
18455;SDS011;9357;49.900;8.208;2023-11-19T04:51:42;1.30;;;1.00;;
18455;SDS011;9357;49.900;8.208;2023-11-19T04:53:15;0.87;;;0.87;;
18455;SDS011;9357;49.900;8.208;2023-11-19T04:54:48;1.10;;;1.00;;
18455;SDS011;9357;49.900;8.208;2023-11-19T04:56:20;1.57;;;1.00;;
18455;SDS011;9357;49.900;8.208;2023-11-19T04:57:54;1.27;;;1.00;;
18455;SDS011;9357;49.900;8.208;2023-11-19T04:59:26;1.10;;;1.10;;
18455;SDS011;9357;49.900;8.208;2023-11-19T05:00:58;1.20;;;1.20;;
18455;SDS011;9357;49.900;8.208;2023-11-19T05:02:31;1.30;;;1.20;;
18455;SDS011;9357;49.900;8.208;2023-11-19T05:04:04;1.30;;;1.17;;
18455;SDS011;9357;49.900;8.208;2023-11-19T05:05:37;1.63;;;1.53;;
18455;SDS011;9357;49.900;8.208;2023-11-19T05:07:09;1.30;;;1.20;;
18455;SDS011;9357;49.900;8.208;2023-11-19T05:08:42;1.83;;;1.40;;
18455;SDS011;9357;49.900;8.208;2023-11-19T05:10:14;1.43;;;1.33;;
18455;SDS011;9357;49.900;8.208;2023-11-19T05:11:46;1.40;;;1.30;;
18455;SDS011;9357;49.900;8.208;2023-11-19T05:13:22;1.50;;;1.40;;
18455;SDS011;9357;49.900;8.208;2023-11-19T05:14:55;1.40;;;1.30;;
18455;SDS011;9357;49.900;8.208;2023-11-19T05:16:27;1.80;;;1.47;;
18455;SDS011;9357;49.900;8.208;2023-11-19T05:17:59;2.07;;;1.50;;
18455;SDS011;9357;49.900;8.208;2023-11-19T05:19:33;2.20;;;1.43;;
18455;SDS011;9357;49.900;8.208;2023-11-19T05:21:06;1.80;;;1.60;;
18455;SDS011;9357;49.900;8.208;2023-11-19T05:22:38;1.53;;;1.40;;
18455;SDS011;9357;49.900;8.208;2023-11-19T05:24:11;2.00;;;1.70;;
18455;SDS011;9357;49.900;8.208;2023-11-19T05:25:43;1.67;;;1.57;;
18455;SDS011;9357;49.900;8.208;2023-11-19T05:27:16;1.70;;;1.60;;
18455;SDS011;9357;49.900;8.208;2023-11-19T05:28:50;1.70;;;1.60;;
18455;SDS011;9357;49.900;8.208;2023-11-19T05:30:23;1.50;;;1.40;;
18455;SDS011;9357;49.900;8.208;2023-11-19T05:31:54;1.50;;;1.40;;
18455;SDS011;9357;49.900;8.208;2023-11-19T05:33:27;1.50;;;1.40;;
18455;SDS011;9357;49.900;8.208;2023-11-19T05:35:00;2.23;;;1.50;;
18455;SDS011;9357;49.900;8.208;2023-11-19T05:36:33;1.53;;;1.30;;
18455;SDS011;9357;49.900;8.208;2023-11-19T05:38:05;1.50;;;1.40;;
18455;SDS011;9357;49.900;8.208;2023-11-19T05:39:38;2.10;;;1.67;;
18455;SDS011;9357;49.900;8.208;2023-11-19T05:41:10;1.60;;;1.50;;
18455;SDS011;9357;49.900;8.208;2023-11-19T05:42:43;1.80;;;1.70;;
18455;SDS011;9357;49.900;8.208;2023-11-19T05:44:14;1.60;;;1.50;;
18455;SDS011;9357;49.900;8.208;2023-11-19T05:45:47;1.80;;;1.70;;
18455;SDS011;9357;49.900;8.208;2023-11-19T05:47:19;3.17;;;2.03;;
18455;SDS011;9357;49.900;8.208;2023-11-19T05:48:52;2.07;;;1.87;;
18455;SDS011;9357;49.900;8.208;2023-11-19T05:50:25;1.90;;;1.80;;
18455;SDS011;9357;49.900;8.208;2023-11-19T05:51:58;1.77;;;1.67;;
18455;SDS011;9357;49.900;8.208;2023-11-19T05:53:33;2.03;;;1.93;;
18455;SDS011;9357;49.900;8.208;2023-11-19T05:55:05;2.20;;;1.90;;
18455;SDS011;9357;49.900;8.208;2023-11-19T05:56:41;2.80;;;2.03;;
18455;SDS011;9357;49.900;8.208;2023-11-19T05:58:14;1.80;;;1.70;;
18455;SDS011;9357;49.900;8.208;2023-11-19T05:59:46;2.10;;;1.90;;
18455;SDS011;9357;49.900;8.208;2023-11-19T06:01:18;1.90;;;1.80;;
18455;SDS011;9357;49.900;8.208;2023-11-19T06:02:50;2.00;;;1.90;;
18455;SDS011;9357;49.900;8.208;2023-11-19T06:04:23;1.93;;;1.83;;
18455;SDS011;9357;49.900;8.208;2023-11-19T06:05:56;2.30;;;2.20;;
18455;SDS011;9357;49.900;8.208;2023-11-19T06:07:29;2.63;;;2.27;;
18455;SDS011;9357;49.900;8.208;2023-11-19T06:09:01;2.37;;;2.20;;
18455;SDS011;9357;49.900;8.208;2023-11-19T06:10:40;2.83;;;2.27;;
18455;SDS011;9357;49.900;8.208;2023-11-19T06:12:13;2.47;;;2.27;;
18455;SDS011;9357;49.900;8.208;2023-11-19T06:13:45;2.13;;;2.03;;
18455;SDS011;9357;49.900;8.208;2023-11-19T06:15:19;2.50;;;2.30;;
18455;SDS011;9357;49.900;8.208;2023-11-19T06:16:51;2.30;;;2.20;;
18455;SDS011;9357;49.900;8.208;2023-11-19T06:18:24;2.33;;;2.13;;
18455;SDS011;9357;49.900;8.208;2023-11-19T06:19:56;2.97;;;2.50;;
18455;SDS011;9357;49.900;8.208;2023-11-19T06:21:30;2.43;;;2.30;;
18455;SDS011;9357;49.900;8.208;2023-11-19T06:23:02;2.63;;;2.43;;
18455;SDS011;9357;49.900;8.208;2023-11-19T06:24:34;2.43;;;2.23;;
18455;SDS011;9357;49.900;8.208;2023-11-19T06:26:09;2.43;;;2.23;;
18455;SDS011;9357;49.900;8.208;2023-11-19T06:27:42;2.80;;;2.60;;
18455;SDS011;9357;49.900;8.208;2023-11-19T06:29:15;2.53;;;2.40;;
18455;SDS011;9357;49.900;8.208;2023-11-19T06:30:49;2.60;;;2.40;;
18455;SDS011;9357;49.900;8.208;2023-11-19T06:32:22;2.73;;;2.53;;
18455;SDS011;9357;49.900;8.208;2023-11-19T06:33:54;3.03;;;2.73;;
18455;SDS011;9357;49.900;8.208;2023-11-19T06:35:27;3.00;;;2.80;;
18455;SDS011;9357;49.900;8.208;2023-11-19T06:37:01;2.70;;;2.50;;
18455;SDS011;9357;49.900;8.208;2023-11-19T06:38:35;3.30;;;2.40;;
18455;SDS011;9357;49.900;8.208;2023-11-19T06:40:07;2.73;;;2.50;;
18455;SDS011;9357;49.900;8.208;2023-11-19T06:41:44;2.90;;;2.70;;
18455;SDS011;9357;49.900;8.208;2023-11-19T06:43:16;2.70;;;2.50;;
18455;SDS011;9357;49.900;8.208;2023-11-19T06:44:49;3.03;;;2.70;;
18455;SDS011;9357;49.900;8.208;2023-11-19T06:46:21;2.87;;;2.60;;
18455;SDS011;9357;49.900;8.208;2023-11-19T06:47:53;2.80;;;2.50;;
18455;SDS011;9357;49.900;8.208;2023-11-19T06:49:25;2.73;;;2.23;;
18455;SDS011;9357;49.900;8.208;2023-11-19T06:50:58;2.80;;;2.50;;
18455;SDS011;9357;49.900;8.208;2023-11-19T06:52:32;2.50;;;2.30;;
18455;SDS011;9357;49.900;8.208;2023-11-19T06:54:05;3.03;;;2.57;;
18455;SDS011;9357;49.900;8.208;2023-11-19T06:55:37;2.60;;;2.40;;
18455;SDS011;9357;49.900;8.208;2023-11-19T06:57:10;2.80;;;2.60;;
18455;SDS011;9357;49.900;8.208;2023-11-19T06:58:42;2.40;;;2.20;;
18455;SDS011;9357;49.900;8.208;2023-11-19T07:00:14;2.97;;;2.13;;
18455;SDS011;9357;49.900;8.208;2023-11-19T07:01:49;2.37;;;2.17;;
18455;SDS011;9357;49.900;8.208;2023-11-19T07:03:21;2.30;;;2.20;;
18455;SDS011;9357;49.900;8.208;2023-11-19T07:04:53;2.47;;;2.20;;
18455;SDS011;9357;49.900;8.208;2023-11-19T07:06:26;2.50;;;2.10;;
18455;SDS011;9357;49.900;8.208;2023-11-19T07:08:03;3.73;;;2.30;;
18455;SDS011;9357;49.900;8.208;2023-11-19T07:09:35;2.33;;;2.00;;
18455;SDS011;9357;49.900;8.208;2023-11-19T07:11:09;2.27;;;2.10;;
18455;SDS011;9357;49.900;8.208;2023-11-19T07:12:42;2.70;;;2.50;;
18455;SDS011;9357;49.900;8.208;2023-11-19T07:14:16;3.10;;;2.80;;
18455;SDS011;9357;49.900;8.208;2023-11-19T07:15:47;4.20;;;3.17;;
18455;SDS011;9357;49.900;8.208;2023-11-19T07:17:20;6.77;;;4.43;;
18455;SDS011;9357;49.900;8.208;2023-11-19T07:18:52;9.17;;;6.63;;
18455;SDS011;9357;49.900;8.208;2023-11-19T07:20:25;10.70;;;7.70;;
18455;SDS011;9357;49.900;8.208;2023-11-19T07:21:57;13.43;;;8.10;;
18455;SDS011;9357;49.900;8.208;2023-11-19T07:23:31;10.07;;;6.30;;
18455;SDS011;9357;49.900;8.208;2023-11-19T07:25:05;15.47;;;8.80;;
18455;SDS011;9357;49.900;8.208;2023-11-19T07:26:41;10.50;;;5.47;;
18455;SDS011;9357;49.900;8.208;2023-11-19T07:28:14;5.03;;;3.80;;
18455;SDS011;9357;49.900;8.208;2023-11-19T07:29:47;5.30;;;3.90;;
18455;SDS011;9357;49.900;8.208;2023-11-19T07:31:19;4.20;;;3.60;;
18455;SDS011;9357;49.900;8.208;2023-11-19T07:32:52;4.03;;;3.07;;
18455;SDS011;9357;49.900;8.208;2023-11-19T07:34:24;6.37;;;4.00;;
18455;SDS011;9357;49.900;8.208;2023-11-19T07:35:57;8.03;;;3.70;;
18455;SDS011;9357;49.900;8.208;2023-11-19T07:37:29;8.77;;;7.20;;
18455;SDS011;9357;49.900;8.208;2023-11-19T07:39:03;7.77;;;6.50;;
18455;SDS011;9357;49.900;8.208;2023-11-19T07:40:36;5.13;;;4.03;;
18455;SDS011;9357;49.900;8.208;2023-11-19T07:42:08;5.17;;;4.50;;
18455;SDS011;9357;49.900;8.208;2023-11-19T07:43:41;3.90;;;3.60;;
18455;SDS011;9357;49.900;8.208;2023-11-19T07:45:15;4.27;;;3.87;;
18455;SDS011;9357;49.900;8.208;2023-11-19T07:46:47;4.30;;;3.97;;
18455;SDS011;9357;49.900;8.208;2023-11-19T07:48:20;4.17;;;3.77;;
18455;SDS011;9357;49.900;8.208;2023-11-19T07:49:54;4.60;;;3.93;;
18455;SDS011;9357;49.900;8.208;2023-11-19T07:51:27;3.87;;;3.50;;
18455;SDS011;9357;49.900;8.208;2023-11-19T07:52:59;4.40;;;3.50;;
18455;SDS011;9357;49.900;8.208;2023-11-19T07:54:34;3.70;;;3.40;;
18455;SDS011;9357;49.900;8.208;2023-11-19T07:56:06;3.83;;;3.43;;
18455;SDS011;9357;49.900;8.208;2023-11-19T07:57:39;7.10;;;3.77;;
18455;SDS011;9357;49.900;8.208;2023-11-19T07:59:11;4.00;;;3.60;;
18455;SDS011;9357;49.900;8.208;2023-11-19T08:00:44;3.90;;;3.53;;
18455;SDS011;9357;49.900;8.208;2023-11-19T08:02:16;5.87;;;4.13;;
18455;SDS011;9357;49.900;8.208;2023-11-19T08:03:49;5.83;;;3.60;;
18455;SDS011;9357;49.900;8.208;2023-11-19T08:05:24;5.43;;;4.00;;
18455;SDS011;9357;49.900;8.208;2023-11-19T08:06:57;4.50;;;3.40;;
18455;SDS011;9357;49.900;8.208;2023-11-19T08:08:29;4.70;;;3.80;;
18455;SDS011;9357;49.900;8.208;2023-11-19T08:10:05;6.17;;;4.17;;
18455;SDS011;9357;49.900;8.208;2023-11-19T08:11:41;3.97;;;3.20;;
18455;SDS011;9357;49.900;8.208;2023-11-19T08:13:14;4.43;;;2.67;;
18455;SDS011;9357;49.900;8.208;2023-11-19T08:14:45;5.57;;;2.47;;
18455;SDS011;9357;49.900;8.208;2023-11-19T08:16:18;4.27;;;2.03;;
18455;SDS011;9357;49.900;8.208;2023-11-19T08:17:50;3.83;;;2.07;;
18455;SDS011;9357;49.900;8.208;2023-11-19T08:19:23;5.13;;;2.40;;
18455;SDS011;9357;49.900;8.208;2023-11-19T08:20:55;2.90;;;2.03;;
18455;SDS011;9357;49.900;8.208;2023-11-19T08:22:29;2.40;;;1.93;;
18455;SDS011;9357;49.900;8.208;2023-11-19T08:24:01;5.07;;;2.30;;
18455;SDS011;9357;49.900;8.208;2023-11-19T08:25:36;4.13;;;2.00;;
18455;SDS011;9357;49.900;8.208;2023-11-19T08:27:07;3.90;;;2.17;;
18455;SDS011;9357;49.900;8.208;2023-11-19T08:28:40;4.43;;;2.13;;
18455;SDS011;9357;49.900;8.208;2023-11-19T08:30:12;6.90;;;2.43;;
18455;SDS011;9357;49.900;8.208;2023-11-19T08:31:45;4.93;;;2.10;;
18455;SDS011;9357;49.900;8.208;2023-11-19T08:33:17;2.93;;;2.03;;
18455;SDS011;9357;49.900;8.208;2023-11-19T08:34:50;3.70;;;1.73;;
18455;SDS011;9357;49.900;8.208;2023-11-19T08:36:22;4.83;;;2.13;;
18455;SDS011;9357;49.900;8.208;2023-11-19T08:37:54;4.03;;;1.90;;
18455;SDS011;9357;49.900;8.208;2023-11-19T08:39:31;5.63;;;2.20;;
18455;SDS011;9357;49.900;8.208;2023-11-19T08:41:04;4.47;;;2.10;;
18455;SDS011;9357;49.900;8.208;2023-11-19T08:42:37;4.23;;;1.80;;
18455;SDS011;9357;49.900;8.208;2023-11-19T08:44:10;3.90;;;2.27;;
18455;SDS011;9357;49.900;8.208;2023-11-19T08:45:43;5.50;;;2.00;;
18455;SDS011;9357;49.900;8.208;2023-11-19T08:47:15;3.23;;;2.10;;
18455;SDS011;9357;49.900;8.208;2023-11-19T08:48:49;5.33;;;2.30;;
18455;SDS011;9357;49.900;8.208;2023-11-19T08:50:20;5.67;;;2.40;;
18455;SDS011;9357;49.900;8.208;2023-11-19T08:51:53;3.60;;;2.10;;
18455;SDS011;9357;49.900;8.208;2023-11-19T08:53:25;6.47;;;2.33;;
18455;SDS011;9357;49.900;8.208;2023-11-19T08:54:58;4.87;;;2.37;;
18455;SDS011;9357;49.900;8.208;2023-11-19T08:56:31;4.23;;;2.13;;
18455;SDS011;9357;49.900;8.208;2023-11-19T08:58:05;5.20;;;2.20;;
18455;SDS011;9357;49.900;8.208;2023-11-19T08:59:38;4.87;;;1.90;;
18455;SDS011;9357;49.900;8.208;2023-11-19T09:01:10;5.40;;;1.90;;
18455;SDS011;9357;49.900;8.208;2023-11-19T09:02:42;4.47;;;2.10;;
18455;SDS011;9357;49.900;8.208;2023-11-19T09:04:15;4.90;;;1.90;;
18455;SDS011;9357;49.900;8.208;2023-11-19T09:05:47;4.50;;;1.67;;
18455;SDS011;9357;49.900;8.208;2023-11-19T09:07:20;6.07;;;1.90;;
18455;SDS011;9357;49.900;8.208;2023-11-19T09:08:52;3.67;;;1.53;;
18455;SDS011;9357;49.900;8.208;2023-11-19T09:10:29;6.93;;;1.80;;
18455;SDS011;9357;49.900;8.208;2023-11-19T09:12:02;6.27;;;1.80;;
18455;SDS011;9357;49.900;8.208;2023-11-19T09:13:35;4.93;;;1.70;;
18455;SDS011;9357;49.900;8.208;2023-11-19T09:15:07;5.03;;;2.03;;
18455;SDS011;9357;49.900;8.208;2023-11-19T09:16:42;4.33;;;1.87;;
18455;SDS011;9357;49.900;8.208;2023-11-19T09:18:14;6.47;;;1.97;;
18455;SDS011;9357;49.900;8.208;2023-11-19T09:19:46;5.30;;;1.67;;
18455;SDS011;9357;49.900;8.208;2023-11-19T09:21:18;6.17;;;1.80;;
18455;SDS011;9357;49.900;8.208;2023-11-19T09:22:51;7.40;;;1.80;;
18455;SDS011;9357;49.900;8.208;2023-11-19T09:24:23;3.57;;;1.90;;
18455;SDS011;9357;49.900;8.208;2023-11-19T09:25:55;3.87;;;1.90;;
18455;SDS011;9357;49.900;8.208;2023-11-19T09:27:29;5.57;;;1.80;;
18455;SDS011;9357;49.900;8.208;2023-11-19T09:29:01;7.23;;;1.90;;